VABBVASU

Guest
Details From VABB - Bombay Mumbai Chhatrapati Shivaji Intl
To VASU - SURAT
Flight Number -
Tags generated
Created
Modified
Stats Distance 125 nm / 232 km
Max Altitude 7,500 ft / 2,286 m
Waypoints 4
Social Downloads 5
Likes 0
Share

Download

Looking for another format? Having issues loading an existing format? Contact us
Advertisement - Login to hide

Notes

Basic altitude profile: - Ascent Rate: 2500ft/min - Ascent Speed: 250kts - Cruise Altitude: 35000ft - Cruise Speed: 420kts - Descent Rate: 1500ft/min - Descent Speed: 250kts Options: - Use NATs: yes - Use PACOTS: yes - Use low airways: yes - Use high airways: yes

Route

VABB BBB W16N DOTIP VASU

ID Type Via Altitude (ft/m) Position (lat/lon) Dist (leg/tot) Name
O VABB APT - 0 / 0 19.08898 / 72.86591 - / 0 nm Bombay Mumbai Chhatrapati Shivaji Intl
BBB VOR - 200 / 61 19.08539 / 72.87536 0 / 0 nm MUMBAI VOR-DME
DOTIP FIX W16N (AWY-LO) 7,500 / 2,286 20.75797 / 72.94630 100 / 101 nm
O VASU APT - 0 / 0 21.11406 / 72.74179 24 / 125 nm SURAT

Altitude Profile

Advertisement - Login to hide

VABB

Details ICAO VABB (BOM)
Name Mumbai Chhatrapati Shivaji Intl
Region India
Timezone Asia/Kolkata (UTC+5.5)
Stats Elevation 39 ft / 12 m (AMSL)
Location 19.089100° 72.865600°
Runways 2
Magnetic Variation 0.017° E

METAR

VABB 210330Z 05005KT 2500 HZ FEW020 SCT100 30/27 Q1009 NOSIG

Decode

TAF

TAF VABB 202300Z 2100/2206 05005KT 2500 -DZ HZ FEW018 SCT025 BKN090 BECMG 2102/2104 3000 HZ FEW020 SCT025 BECMG 2106/2108 32008KT 4000 HZ TEMPO 2109/2118 1500 TSRA SHRA FEW018 FEW030TCU/CB BKN090 BECMG 2115/2117 07005KT 3000 HZ FEW018 SCT100 BECMG 2122/2124 VRB03KT 2500 HZ BR BECMG 2202/2204 05005KT 3000 HZ FEW020 SCT025

Decode

Departure Runways

ID Width Length Bearing (true/mag) Surface Threshold Overrun Markings Lighting
09 197 ft / 60 m 11,297 ft / 3,443 m 89.15° / 89.13° ASPHALT 466 ft / 142 m 0 ft / 0 m PREC-APP CENTERLINE EDGE THRESHOLD ALSF-I REIL-OMNI
14 150 ft / 46 m 9,434 ft / 2,875 m 134.27° / 134.26° ASPHALT 1,339 ft / 408 m 203 ft / 62 m PREC-APP SALS REIL-OMNI
27 197 ft / 60 m 11,297 ft / 3,443 m 269.16° / 269.15° ASPHALT 1,585 ft / 483 m 135 ft / 41 m PREC-APP CENTERLINE EDGE THRESHOLD ALSF-II REIL-OMNI
32 150 ft / 46 m 9,434 ft / 2,875 m 314.28° / 314.26° ASPHALT 853 ft / 260 m 203 ft / 62 m PREC-APP REIL-OMNI

VASU

Details ICAO VASU (STV)
Name Surat Intl
Region India
Timezone Asia/Kolkata (UTC+5.5)
Stats Elevation 28 ft / 9 m (AMSL)
Location 21.115800° 72.743400°
Runways 1
Magnetic Variation 0.340° E

METAR

VASU 210330Z 00000KT 1500 BR FEW080 30/26 Q1010 BECMG 2000 HZ

Decode

TAF

Not found

Destination Runways

ID Width Length Bearing (true/mag) Surface Threshold Overrun Markings Lighting
04 148 ft / 45 m 9,547 ft / 2,910 m 42.83° / 42.49° ASPHALT 0 ft / 0 m 0 ft / 0 m PREC-APP CENTERLINE EDGE THRESHOLD SALS
22 148 ft / 45 m 9,547 ft / 2,910 m 222.83° / 222.49° ASPHALT 3,284 ft / 1,001 m 223 ft / 68 m PREC-APP CENTERLINE EDGE THRESHOLD SALS

Popular Alternatives